Boston, MA

5:24 PM EDT on August 21, 2014 (GMT -0400)
Norwood Memorial | Change Station
CLOSE
Current Station
Airport
Location: Norwood,
Elevation: 49 ft
Nearby Weather Stations

Elev 49 ft 42.19 °N, 71.17 °W | Updated 31 minutes ago

Scattered Clouds
Scattered Clouds
74 °F
Feels Like 74 °F
N
7
Wind Variable Wind from NE

Today
High -- | Low -- °F
--% Chance of Precip.
Yesterday
High -- | Low -- °F
Precip. -- in
5:57 AM 7:36 PM
Waning Crescent, 12% visible
Pressure 30.05 in
Visibility 10.0 miles
Clouds Scattered Clouds 4300 ft
Scattered Clouds 6000 ft
Dew Point 61 °F
Humidity 64%
Rainfall 0.00 in
Snow Depth Not available.
UV 2 out of 12
Pollen 8.20 out of 12
Ozone Good
PM2.5 Good
Flu Activity Not available.
METAR KOWD 212053Z 04006KT 10SM SCT043 SCT060 23/16 A3005 RMK AO2 SLP176 T02330161 55004

More Conditions Fewer Conditions

Pressure 30.05 in
Visibility 10.0 miles
Clouds Scattered Clouds 4300 ft
Scattered Clouds 6000 ft
Dew Point 61 °F
Humidity 64%
Rainfall 0.00 in
Snow Depth Not available.
UV 2 out of 12
Pollen 8.20 out of 12
Ozone Good
PM2.5 Good
Flu Activity Not available.
METAR KOWD 212053Z 04006KT 10SM SCT043 SCT060 23/16 A3005 RMK AO2 SLP176 T02330161 55004

More Conditions Fewer Conditions

10-Day Weather Forecast

Almanac

Astronomy

Aug. 21, 2014 Rise Set
Actual Time 5:57 AM EDT 7:36 PM EDT
Civil Twilight 5:27 AM EDT 8:05 PM EDT
Nautical Twilight 4:51 AM EDT 8:41 PM EDT
Astronomical Twilight 4:13 AM EDT 9:20 PM EDT
Moon 2:23 AM EDT 5:04 PM EDT
Length of Visible Light 14h 37m
Length of Day
13h 38m
Tomorrow will be 2m 37s shorter.
Waning Crescent, 12% of the Moon is Illuminated
Today
Waning Crescent
Aug 25
New
Sep 2
First Quarter
Sep 8
Full
Sep 15
Last Quarter

Today's Extremes

State Highs State Lows

Community

WunderPhotos

Upload Photos

1,746,021 photos uploaded!

WunderBlogs® & News

Nearby

Air Quality

  Air Quality AQ Index Pollutant
Yesterday Good
PM2.5
Yesterday Good
OZONE
Current Good
PM2.5
Current Good
OZONE
Thursday Good
PM2.5
Thursday Good
OZONE
Friday Good
PM2.5
Friday Good
OZONE

Snow Depth

Station Depth Elevation
No new snow has been reported.

Earthquake Activity

City Distance Mag. Time & Date
No recent earthquake activity has been reported nearby.
Minimum magnitude displayed is 2.5.

Coastal Water Temperatures

Place Temperature
Boston, MA 66.0 °F
Providence, RI 73.0 °F
Fall River, MA 73.9 °F
Conimicut Light, RI 72.0 °F

Nearby Weather Stations